createdAt,value
2023-01-13T03:45:51.719Z,0.94
2023-01-13T03:48:57.514Z,0.91
2023-01-13T03:52:05.386Z,0.91
2023-01-13T03:55:12.875Z,0.95
2023-01-13T03:58:21.043Z,1.00
2023-01-13T04:01:37.167Z,1.01
2023-01-13T04:04:52.092Z,1.04
2023-01-13T04:08:20.926Z,1.02
2023-01-13T04:11:38.764Z,1.08
2023-01-13T04:14:41.499Z,1.10
2023-01-13T04:17:44.136Z,1.09
2023-01-13T04:20:48.350Z,1.12
2023-01-13T04:23:51.850Z,1.13
2023-01-13T04:26:56.350Z,1.16
2023-01-13T04:29:58.769Z,1.18
2023-01-13T04:33:01.210Z,1.26
2023-01-13T04:36:03.840Z,1.22
2023-01-13T04:39:08.252Z,1.18
2023-01-13T04:42:10.630Z,1.18
2023-01-13T04:45:13.111Z,1.20
2023-01-13T04:48:15.706Z,1.26
2023-01-13T04:51:18.216Z,1.21
2023-01-13T04:54:20.648Z,1.18
2023-01-13T04:57:22.787Z,1.17
2023-01-13T05:00:25.198Z,1.17
2023-01-13T05:03:27.331Z,1.12
2023-01-13T05:06:29.892Z,1.10
2023-01-13T05:09:32.107Z,1.06
2023-01-13T05:12:52.923Z,1.03
2023-01-13T05:16:13.842Z,1.20
2023-01-13T05:19:16.223Z,1.14
2023-01-13T05:22:37.142Z,1.07
2023-01-13T05:25:44.197Z,1.05
2023-01-13T05:28:46.576Z,1.03
2023-01-13T05:31:48.948Z,1.04
2023-01-13T05:34:51.608Z,1.06
2023-01-13T05:37:55.005Z,1.00
2023-01-13T05:41:18.097Z,0.95
2023-01-13T05:44:20.516Z,0.91
2023-01-13T05:47:22.867Z,0.88
2023-01-13T05:50:25.307Z,0.89
2023-01-13T05:53:27.500Z,0.90
2023-01-13T05:56:30.018Z,0.88
2023-01-13T05:59:32.135Z,0.91
2023-01-13T06:02:34.693Z,0.97
2023-01-13T06:05:37.563Z,0.98
2023-01-13T06:08:40.119Z,1.03
2023-01-13T06:11:42.623Z,1.12
2023-01-13T06:14:45.368Z,1.19
2023-01-13T06:17:48.501Z,1.09
2023-01-13T06:20:51.345Z,1.06
2023-01-13T06:23:53.789Z,1.01
2023-01-13T06:26:55.950Z,0.99
2023-01-13T06:29:58.461Z,0.99
2023-01-13T06:33:04.868Z,1.05
2023-01-13T06:36:12.470Z,1.13
2023-01-13T06:39:20.096Z,1.21
2023-01-13T06:42:41.304Z,1.29
2023-01-13T06:45:53.647Z,1.35
2023-01-13T06:48:56.070Z,1.48
2023-01-13T06:51:58.203Z,1.52
2023-01-13T06:55:00.567Z,1.57
2023-01-13T06:58:02.988Z,1.58
2023-01-13T07:01:05.626Z,1.63
2023-01-13T07:04:07.851Z,1.57
2023-01-13T07:07:10.276Z,1.56
2023-01-13T07:10:22.034Z,1.56
2023-01-13T07:13:43.186Z,1.63
2023-01-13T07:16:45.462Z,1.68
2023-01-13T07:19:47.972Z,1.85
2023-01-13T07:22:54.897Z,1.94
2023-01-13T07:25:59.325Z,2.06
2023-01-13T07:29:01.519Z,2.11
2023-01-13T07:32:04.409Z,2.20
2023-01-13T07:35:07.140Z,2.31
2023-01-13T07:38:09.548Z,2.43
2023-01-13T07:41:32.542Z,2.52
2023-01-13T07:44:34.979Z,2.60
2023-01-13T07:47:40.791Z,2.65
2023-01-13T07:50:44.222Z,2.74
2023-01-13T07:53:46.631Z,2.92
2023-01-13T07:56:49.040Z,3.09
2023-01-13T07:59:51.466Z,3.08
2023-01-13T08:02:54.115Z,3.06
2023-01-13T08:05:57.106Z,3.03
2023-01-13T08:08:59.534Z,2.94
2023-01-13T08:12:20.792Z,2.89
2023-01-13T08:15:23.037Z,2.83
2023-01-13T08:18:25.712Z,2.78
2023-01-13T08:21:28.394Z,2.65
2023-01-13T08:24:30.886Z,2.63
2023-01-13T08:27:33.826Z,2.71
2023-01-13T08:30:36.458Z,2.80
2023-01-13T08:33:39.265Z,2.88
2023-01-13T08:36:41.813Z,3.03
2023-01-13T08:39:44.034Z,3.19
2023-01-13T08:42:48.615Z,3.08
2023-01-13T08:46:00.109Z,3.18
2023-01-13T08:49:03.508Z,3.24
2023-01-13T08:52:05.736Z,3.27
2023-01-13T08:55:09.281Z,3.37
2023-01-13T08:58:15.776Z,3.21
2023-01-13T09:01:22.443Z,3.12
2023-01-13T09:04:27.842Z,3.12
2023-01-13T09:07:31.265Z,3.05
2023-01-13T09:10:33.859Z,2.98
2023-01-13T09:13:36.334Z,3.06
2023-01-13T09:16:38.769Z,2.98
2023-01-13T09:19:41.848Z,3.04
2023-01-13T09:22:44.004Z,3.11
2023-01-13T09:25:49.266Z,3.28
2023-01-13T09:28:51.587Z,3.36
2023-01-13T09:31:54.153Z,3.24
2023-01-13T09:35:02.372Z,3.33
2023-01-13T09:38:06.132Z,3.36
2023-01-13T09:41:39.398Z,3.41
2023-01-13T09:45:05.660Z,3.48
2023-01-13T09:48:17.687Z,3.36
2023-01-13T09:51:49.315Z,3.31
2023-01-13T09:55:02.678Z,3.43
2023-01-13T09:58:16.824Z,3.28
2023-01-13T10:01:34.779Z,3.29
2023-01-13T10:04:37.320Z,3.16
2023-01-13T10:07:49.633Z,3.30
2023-01-13T10:10:55.910Z,3.50
2023-01-13T10:14:02.575Z,3.51
2023-01-13T10:17:43.772Z,3.51
2023-01-13T10:21:31.553Z,3.75
2023-01-13T10:24:49.266Z,3.86
2023-01-13T10:27:53.927Z,3.98
2023-01-13T10:30:56.495Z,3.97
2023-01-13T10:34:06.411Z,3.90
2023-01-13T10:37:20.877Z,3.99
2023-01-13T10:40:23.304Z,3.98
2023-01-13T10:43:27.591Z,3.82
2023-01-13T10:46:32.226Z,3.63
2023-01-13T10:49:37.068Z,3.65
2023-01-13T10:52:54.721Z,3.81
2023-01-13T10:56:02.491Z,3.79
2023-01-13T10:59:24.803Z,3.48
2023-01-13T11:02:30.629Z,3.52
2023-01-13T11:05:32.837Z,3.62
2023-01-13T11:08:45.201Z,3.67
2023-01-13T11:11:49.613Z,3.81
2023-01-13T11:14:52.240Z,3.65
2023-01-13T11:18:05.045Z,3.56
2023-01-13T11:21:49.726Z,3.61
2023-01-13T11:25:05.761Z,3.62
2023-01-13T11:28:45.913Z,3.58
2023-01-13T11:32:00.161Z,3.59
2023-01-13T11:35:14.536Z,3.66
2023-01-13T11:38:31.491Z,3.61
2023-01-13T11:41:36.936Z,3.53
2023-01-13T11:44:46.213Z,3.46
2023-01-13T11:47:52.023Z,3.49
2023-01-13T11:51:14.504Z,3.41
2023-01-13T11:54:32.287Z,3.35
2023-01-13T11:57:45.401Z,3.35
2023-01-13T12:01:12.987Z,3.48
2023-01-13T12:04:44.711Z,3.60
2023-01-13T12:08:05.877Z,3.64
2023-01-13T12:12:04.238Z,3.54
2023-01-13T12:15:18.579Z,3.57
2023-01-13T12:18:36.692Z,3.56
2023-01-13T12:22:01.941Z,3.56
2023-01-13T12:25:16.041Z,3.43
2023-01-13T12:28:32.423Z,3.46
2023-01-13T12:31:38.287Z,3.65
2023-01-13T12:34:50.518Z,3.52
2023-01-13T12:38:12.430Z,3.53
2023-01-13T12:42:02.059Z,3.55
2023-01-13T12:45:10.381Z,3.64
2023-01-13T12:48:44.756Z,3.71
2023-01-13T12:51:56.367Z,3.77
2023-01-13T12:54:58.532Z,3.92
2023-01-13T12:58:06.748Z,3.78
2023-01-13T13:01:14.404Z,3.80
2023-01-13T13:04:41.259Z,3.82
2023-01-13T13:07:47.613Z,3.94
2023-01-13T13:11:02.784Z,3.72
2023-01-13T13:14:10.497Z,3.74
2023-01-13T13:17:28.138Z,3.82
2023-01-13T13:20:56.647Z,3.78
2023-01-13T13:24:04.957Z,3.85
2023-01-13T13:27:34.395Z,3.99
2023-01-13T13:30:43.459Z,3.99
2023-01-13T13:34:07.005Z,3.96
2023-01-13T13:37:33.501Z,4.08
2023-01-13T13:41:04.752Z,4.22
2023-01-13T13:44:37.372Z,4.13
2023-01-13T13:47:39.590Z,4.08
2023-01-13T13:50:47.643Z,4.16
2023-01-13T13:53:49.863Z,4.18
2023-01-13T13:56:52.797Z,4.28
2023-01-13T13:59:57.925Z,4.28
2023-01-13T14:03:08.107Z,4.16
2023-01-13T14:06:24.275Z,4.16
2023-01-13T14:09:29.488Z,4.20
2023-01-13T14:12:38.693Z,4.23
2023-01-13T14:15:41.592Z,4.23
2023-01-13T14:18:48.163Z,4.25
2023-01-13T14:21:50.371Z,4.34
2023-01-13T14:24:57.463Z,4.32
2023-01-13T14:28:03.057Z,4.41
2023-01-13T14:31:08.480Z,4.34
2023-01-13T14:34:32.553Z,4.29
2023-01-13T14:37:40.723Z,4.35
2023-01-13T14:40:45.728Z,4.29
2023-01-13T14:43:49.909Z,4.27
2023-01-13T14:46:55.182Z,4.27
2023-01-13T14:50:06.104Z,4.38
2023-01-13T14:53:38.909Z,4.47
2023-01-13T14:56:50.587Z,4.39
2023-01-13T15:00:02.408Z,4.35
2023-01-13T15:03:07.880Z,4.26
2023-01-13T15:06:25.633Z,4.32
2023-01-13T15:09:40.575Z,4.20
2023-01-13T15:12:43.604Z,4.22
2023-01-13T15:15:51.426Z,4.23
2023-01-13T15:18:54.571Z,4.26
2023-01-13T15:21:56.966Z,4.28
2023-01-13T15:24:59.147Z,4.38
2023-01-13T15:28:02.167Z,4.40
2023-01-13T15:31:04.428Z,4.40
2023-01-13T15:34:06.895Z,4.32
2023-01-13T15:37:09.330Z,4.30
2023-01-13T15:40:20.080Z,4.24
2023-01-13T15:43:42.724Z,4.17
2023-01-13T15:46:45.261Z,4.14
2023-01-13T15:49:47.738Z,4.17
2023-01-13T15:52:50.142Z,4.18
2023-01-13T15:55:57.680Z,4.16
2023-01-13T15:59:00.142Z,4.19
